Terminal Aerodrome Forecast
Issued by NWS

Home | Current Version | Previous Version | Text Only | Print | Product List | Glossary On
Versions: 1 2 3 4 5 6 7 8 9 10 11 12 13 14 15 16
000
FTAK31 PAJN 030500
TAFASI
TAF
PASI 030521Z 0306/0406 12004KT P6SM OVC110
     FM031300 12005KT P6SM VCSH BKN045 OVC080
     FM031600 12008KT P6SM -SHRA SCT025 OVC040
     FM032200 12006KT P6SM -SHRA SCT025 OVC035=

USA.gov is the U.S. government's official web portal to all federal, state and local government web resources and services.